Buckeye, West Virginia
Current Conditions -  °F | °C
As of 11:15 AM on Monday 22 Dec 2014 (Local Time) from KHSP Reporting Station
Light Snow Light Snow  
Wind Chill: 23°   Ceiling: 300
Heat Index: 30°   Visibility: 0mi
Dew Point: 30°   Wind: 7mph
Humidity: 100%   Direction: 130°SE
Pressure: 30.04"   Gusts: NA
Location:  38.19°N, 80.13°W
Report Text: KHSP 221615Z AUTO 13006KT M1/4SM -SN OVC003 M01/M01 A3004 RMK AO2 T10101010
Loading
Personal Weather Stations






























Interactive Weather Map New forecast layout! Learn more

10-Day Weather Forecast

Advertisements
Track Severe Weather on mobile